Time;durP1;ratioP1;P1;durP2;ratioP2;P2;SDS_P1;SDS_P2;PMS_P1;PMS_P2;Temp;Humidity;BMP_temperature;BMP_pressure;BME280_temperature;BME280_humidity;BME280_pressure;Samples;Min_cycle;Max_cycle;Signal;HPM_P1;HPM_P2
2021/12/08 00:00:15;;;;;;;;;;;;;;;-142.21;100.00;66915.31;5000870;28;1588;-86
2021/12/08 00:02:40;;;;;;;;;;;;;;;-142.21;100.00;66915.31;5003179;28;1576;-87
2021/12/08 00:05:06;;;;;;;;;;;;;;;-142.21;100.00;66915.31;5020452;28;1651;-87
2021/12/08 00:07:32;;;;;;;;;;;;;;;-142.21;100.00;66915.31;5004328;28;1588;-87
2021/12/08 00:10:17;;;;;;;;;;;;;;;-142.21;100.00;66915.31;5003547;28;1604;-87
2021/12/08 00:15:27;;;;;;;;;;;;;;;-142.21;100.00;66915.31;5022365;28;1771;-86
2021/12/08 00:17:53;;;;;;;;;;;;;;;-142.21;100.00;66915.31;5005200;28;1727;-87
2021/12/08 00:20:18;;;;;;;;;;;;;;;-142.21;100.00;66915.31;5003866;28;1659;-87
2021/12/08 00:22:43;;;;;;;;;;;;;;;-142.21;100.00;66915.31;5021431;28;1635;-86
2021/12/08 00:25:08;;;;;;;;;;;;;;;-142.21;100.00;66915.31;5003821;28;1084;-86
2021/12/08 00:27:33;;;;;;;;;;;;;;;-142.21;100.00;66915.31;5004419;28;1691;-86
2021/12/08 00:29:59;;;;;;;;;;;;;;;-142.21;100.00;66915.31;5022150;28;1678;-87
2021/12/08 00:32:28;;;;;;;;;;;;;;;-142.21;100.00;66915.31;5022382;28;1879;-87
2021/12/08 00:34:53;;;;;;;;;;;;;;;-142.21;100.00;66915.31;5005290;28;1599;-86
2021/12/08 00:37:19;;;;;;;;;;;;;;;-142.21;100.00;66915.31;5005536;28;1592;-86
2021/12/08 00:39:44;;;;;;;;;;;;;;;-142.21;100.00;66915.31;5005076;28;1683;-87
2021/12/08 00:42:09;;;;;;;;;;;;;;;-142.21;100.00;66915.31;5005473;28;1332;-87
2021/12/08 00:44:34;;;;;;;;;;;;;;;-142.21;100.00;66915.31;5024132;28;882;-86
2021/12/08 00:46:59;;;;;;;;;;;;;;;-142.21;100.00;66915.31;5005856;28;1769;-87
2021/12/08 00:49:25;;;;;;;;;;;;;;;-142.21;100.00;66915.31;5023772;28;1441;-85
2021/12/08 00:51:50;;;;;;;;;;;;;;;-142.21;100.00;66915.31;5004818;28;1871;-87
2021/12/08 00:54:15;;;;;;;;;;;;;;;-142.21;100.00;66915.31;5003399;28;1548;-85
2021/12/08 00:56:40;;;;;;;;;;;;;;;-142.21;100.00;66915.31;5003592;28;1533;-86
2021/12/08 00:59:05;;;;;;;;;;;;;;;-142.21;100.00;66915.31;5003584;28;1240;-87
2021/12/08 01:01:31;;;;;;;;;;;;;;;-142.21;100.00;66915.31;5002886;28;1470;-87
2021/12/08 01:03:56;;;;;;;;;;;;;;;-142.21;100.00;66915.31;5002430;28;1339;-86
2021/12/08 01:06:21;;;;;;;;;;;;;;;-142.21;100.00;66915.31;5001894;28;1497;-86
2021/12/08 01:08:47;;;;;;;;;;;;;;;-142.21;100.00;66915.31;5002320;28;1531;-87
2021/12/08 01:11:13;;;;;;;;;;;;;;;-142.21;100.00;66915.31;5002884;28;1540;-86
2021/12/08 01:13:39;;;;;;;;;;;;;;;-142.21;100.00;66915.31;5001990;28;1952;-86
2021/12/08 01:16:04;;;;;;;;;;;;;;;-142.21;100.00;66915.31;5004852;28;1524;-87
2021/12/08 01:18:30;;;;;;;;;;;;;;;-142.21;100.00;66915.31;5001822;28;1176;-86
2021/12/08 01:20:56;;;;;;;;;;;;;;;-142.21;100.00;66915.31;5000959;28;1469;-84
2021/12/08 01:23:22;;;;;;;;;;;;;;;-142.21;100.00;66915.31;5000529;28;1366;-86
2021/12/08 01:25:47;;;;;;;;;;;;;;;-142.21;100.00;66915.31;5016583;28;1496;-84
2021/12/08 01:28:13;;;;;;;;;;;;;;;-142.21;100.00;66915.31;5001385;28;1489;-85
2021/12/08 01:30:38;;;;;;;;;;;;;;;-142.21;100.00;66915.31;5001743;28;1437;-86
2021/12/08 01:33:03;;;;;;;;;;;;;;;-142.21;100.00;66915.31;5019291;28;1936;-87
2021/12/08 01:35:29;;;;;;;;;;;;;;;-142.21;100.00;66915.31;5002308;28;1494;-87
2021/12/08 01:37:54;;;;;;;;;;;;;;;-142.21;100.00;66915.31;5002245;28;1394;-85
2021/12/08 01:40:19;;;;;;;;;;;;;;;-142.21;100.00;66915.31;5002195;28;1385;-85
2021/12/08 01:42:47;;;;;;;;;;;;;;;-142.21;100.00;66915.31;5002075;28;1524;-86
2021/12/08 01:46:00;;;;;;;;;;;;;;;-142.21;100.00;66915.31;5001984;28;1564;-86
2021/12/08 01:48:01;;;;;;;;;;;;;;;-142.21;100.00;66915.31;4987218;28;1334;-86
2021/12/08 01:50:26;;;;;;;;;;;;;;;-142.21;100.00;66915.31;5002046;28;1181;-87
2021/12/08 01:52:51;;;;;;;;;;;;;;;-142.21;100.00;66915.31;5002201;28;1894;-86
2021/12/08 01:55:16;;;;;;;;;;;;;;;-142.21;100.00;66915.31;5002868;28;1264;-85
2021/12/08 01:57:42;;;;;;;;;;;;;;;-142.21;100.00;66915.31;5002399;28;1549;-86
2021/12/08 02:00:09;;;;;;;;;;;;;;;-142.21;100.00;66915.31;5002666;28;1158;-85
2021/12/08 02:02:35;;;;;;;;;;;;;;;-142.21;100.00;66915.31;5002277;28;1504;-86
2021/12/08 02:05:00;;;;;;;;;;;;;;;-142.21;100.00;66915.31;5002447;28;1548;-87
2021/12/08 02:07:26;;;;;;;;;;;;;;;-142.21;100.00;66915.31;5002181;28;1485;-87
2021/12/08 02:09:51;;;;;;;;;;;;;;;-142.21;100.00;66915.31;5019348;28;1438;-86
2021/12/08 02:12:16;;;;;;;;;;;;;;;-142.21;100.00;66915.31;5001692;28;1898;-87
2021/12/08 02:14:41;;;;;;;;;;;;;;;-142.21;100.00;66915.31;5001379;28;1493;-86
2021/12/08 02:17:10;;;;;;;;;;;;;;;-142.21;100.00;66915.31;5018182;28;1480;-86
2021/12/08 02:19:35;;;;;;;;;;;;;;;-142.21;100.00;66915.31;5000103;28;1553;-86
2021/12/08 02:22:01;;;;;;;;;;;;;;;-142.21;100.00;66915.31;5000376;28;1524;-87
2021/12/08 02:24:26;;;;;;;;;;;;;;;-142.21;100.00;66915.31;4999658;28;1267;-86
2021/12/08 02:26:51;;;;;;;;;;;;;;;-142.21;100.00;66915.31;5000549;28;1362;-86
2021/12/08 02:29:23;;;;;;;;;;;;;;;-142.21;100.00;66915.31;5000774;28;1228;-87
2021/12/08 02:31:59;;;;;;;;;;;;;;;-142.21;100.00;66915.31;5000165;28;1898;-86
2021/12/08 02:48:06;;;;;;;;;;;;;;;-142.21;100.00;66915.31;5019136;28;1211;-86
2021/12/08 02:50:36;;;;;;;;;;;;;;;-142.21;100.00;66915.31;4999882;28;1386;-86
2021/12/08 02:53:02;;;;;;;;;;;;;;;-142.21;100.00;66915.31;5017356;28;1914;-87
2021/12/08 02:55:28;;;;;;;;;;;;;;;-142.21;100.00;66915.31;4999855;28;1311;-85
2021/12/08 02:57:54;;;;;;;;;;;;;;;-142.21;100.00;66915.31;4999774;28;1321;-86
2021/12/08 03:00:24;;;;;;;;;;;;;;;-142.21;100.00;66915.31;5015163;28;1296;-86
2021/12/08 03:02:50;;;;;;;;;;;;;;;-142.21;100.00;66915.31;5023852;28;1591;-87
2021/12/08 03:05:15;;;;;;;;;;;;;;;-142.21;100.00;66915.31;5029243;28;1378;-86
2021/12/08 03:07:41;;;;;;;;;;;;;;;-142.21;100.00;66915.31;5024125;28;1527;-86
2021/12/08 03:10:07;;;;;;;;;;;;;;;-142.21;100.00;66915.31;4996024;28;1268;-85
2021/12/08 03:12:32;;;;;;;;;;;;;;;-142.21;100.00;66915.31;4995800;28;1902;-86
2021/12/08 03:14:58;;;;;;;;;;;;;;;-142.21;100.00;66915.31;4999192;28;1721;-87
2021/12/08 03:17:23;;;;;;;;;;;;;;;-142.21;100.00;66915.31;4999678;28;1280;-86
2021/12/08 03:19:48;;;;;;;;;;;;;;;-142.21;100.00;66915.31;5000060;28;1140;-86
2021/12/08 03:22:13;;;;;;;;;;;;;;;-142.21;100.00;66915.31;5000473;28;1410;-87
2021/12/08 03:24:42;;;;;;;;;;;;;;;-142.21;100.00;66915.31;4999243;28;1509;-85
2021/12/08 03:27:11;;;;;;;;;;;;;;;-142.21;100.00;66915.31;5018292;28;1519;-87
2021/12/08 03:32:26;;;;;;;;;;;;;;;-142.21;100.00;66915.31;5019163;28;1902;-87
2021/12/08 03:34:52;;;;;;;;;;;;;;;-142.21;100.00;66915.31;5003655;28;1445;-88
2021/12/08 03:37:19;;;;;;;;;;;;;;;-142.21;100.00;66915.31;5005433;28;1363;-85
2021/12/08 03:39:44;;;;;;;;;;;;;;;-142.21;100.00;66915.31;5021081;28;1253;-86
2021/12/08 03:42:10;;;;;;;;;;;;;;;-142.21;100.00;66915.31;5005205;28;1410;-86
2021/12/08 03:44:36;;;;;;;;;;;;;;;-142.21;100.00;66915.31;5005368;28;1236;-87
2021/12/08 03:47:02;;;;;;;;;;;;;;;-142.21;100.00;66915.31;5005056;28;1339;-84
2021/12/08 03:49:28;;;;;;;;;;;;;;;-142.21;100.00;66915.31;5005563;28;1364;-86
2021/12/08 03:52:01;;;;;;;;;;;;;;;-142.21;100.00;66915.31;5004560;28;1902;-86
2021/12/08 03:54:26;;;;;;;;;;;;;;;-142.21;100.00;66915.31;5004848;28;1595;-86
2021/12/08 03:56:51;;;;;;;;;;;;;;;-142.21;100.00;66915.31;5020952;28;951;-86
2021/12/08 03:59:16;;;;;;;;;;;;;;;-142.21;100.00;66915.31;5019308;28;1569;-85
2021/12/08 04:01:43;;;;;;;;;;;;;;;-142.21;100.00;66915.31;5012566;28;1264;-87
2021/12/08 04:04:10;;;;;;;;;;;;;;;-142.21;100.00;66915.31;5029338;28;1570;-87
2021/12/08 04:06:44;;;;;;;;;;;;;;;-142.21;100.00;66915.31;5003506;28;1517;-87
2021/12/08 04:09:17;;;;;;;;;;;;;;;-142.21;100.00;66915.31;5002333;28;1229;-86
2021/12/08 04:11:44;;;;;;;;;;;;;;;-142.21;100.00;66915.31;5003850;28;1938;-86
2021/12/08 04:14:11;;;;;;;;;;;;;;;-142.21;100.00;66915.31;5049059;23;2041;-84
2021/12/08 04:16:40;;;;;;;;;;;;;;;-142.21;100.00;66915.31;5044051;28;1189;-85
2021/12/08 04:19:05;;;;;;;;;;;;;;;-142.21;100.00;66915.31;5035156;28;1243;-85
2021/12/08 04:21:32;;;;;;;;;;;;;;;-142.21;100.00;66915.31;5035437;28;1377;-84
2021/12/08 04:23:57;;;;;;;;;;;;;;;-142.21;100.00;66915.31;5036545;28;1305;-84
2021/12/08 04:26:30;;;;;;;;;;;;;;;-142.21;100.00;66915.31;5051743;28;1279;-83
2021/12/08 04:28:55;;;;;;;;;;;;;;;-142.21;100.00;66915.31;5035155;28;1207;-83
2021/12/08 04:31:27;;;;;;;;;;;;;;;-142.21;100.00;66915.31;5052104;28;1172;-83
2021/12/08 04:33:57;;;;;;;;;;;;;;;-142.21;100.00;66915.31;5051856;28;1918;-82
2021/12/08 04:36:24;;;;;;;;;;;;;;;-142.21;100.00;66915.31;5036695;28;885;-83
2021/12/08 04:38:54;;;;;;;;;;;;;;;-142.21;100.00;66915.31;5049442;28;1497;-83
2021/12/08 04:41:26;;;;;;;;;;;;;;;-142.21;100.00;66915.31;5055014;28;1423;-83
2021/12/08 04:47:03;;;;;;;;;;;;;;;-142.21;100.00;66915.31;5033986;28;1554;-83
2021/12/08 04:52:26;;;;;;;;;;;;;;;-142.21;100.00;66915.31;5057007;28;1890;-83
2021/12/08 05:06:41;;;;;;;;;;;;;;;-142.21;100.00;66915.31;5014052;28;967;-83
2021/12/08 05:09:10;;;;;;;;;;;;;;;-142.21;100.00;66915.31;5030431;28;1020;-83
2021/12/08 05:11:38;;;;;;;;;;;;;;;-142.21;100.00;66915.31;5046317;28;1983;-83
2021/12/08 05:14:12;;;;;;;;;;;;;;;-142.21;100.00;66915.31;5056175;28;1235;-84
2021/12/08 05:16:38;;;;;;;;;;;;;;;-142.21;100.00;66915.31;5055027;28;1241;-84
2021/12/08 05:19:05;;;;;;;;;;;;;;;-142.21;100.00;66915.31;5056318;28;987;-85
2021/12/08 05:21:33;;;;;;;;;;;;;;;-142.21;100.00;66915.31;5054748;28;1459;-82
2021/12/08 05:24:10;;;;;;;;;;;;;;;-142.21;100.00;66915.31;5056276;28;1222;-84
2021/12/08 05:26:42;;;;;;;;;;;;;;;-142.21;100.00;66915.31;5036933;28;770;-82
2021/12/08 05:29:11;;;;;;;;;;;;;;;-142.21;100.00;66915.31;5066672;28;1514;-83
2021/12/08 05:31:37;;;;;;;;;;;;;;;-142.21;100.00;66915.31;5056420;28;1973;-83
2021/12/08 05:34:02;;;;;;;;;;;;;;;-142.21;100.00;66915.31;5055140;28;1298;-82
2021/12/08 05:36:27;;;;;;;;;;;;;;;-142.21;100.00;66915.31;5055565;28;1265;-83
2021/12/08 05:38:54;;;;;;;;;;;;;;;-142.21;100.00;66915.31;5054960;28;1175;-83
2021/12/08 05:41:21;;;;;;;;;;;;;;;-142.21;100.00;66915.31;5055280;28;1213;-82
2021/12/08 05:43:47;;;;;;;;;;;;;;;-142.21;100.00;66915.31;5055673;28;1235;-83
2021/12/08 05:46:14;;;;;;;;;;;;;;;-142.21;100.00;66915.31;5055221;28;1145;-82
2021/12/08 05:48:39;;;;;;;;;;;;;;;-142.21;100.00;66915.31;5053704;28;1474;-83
2021/12/08 05:51:07;;;;;;;;;;;;;;;-142.21;100.00;66915.31;5054125;28;1479;-82
2021/12/08 05:53:34;;;;;;;;;;;;;;;-142.21;100.00;66915.31;5054033;28;1894;-82
2021/12/08 05:55:59;;;;;;;;;;;;;;;-142.21;100.00;66915.31;5054990;28;1386;-82
2021/12/08 05:58:25;;;;;;;;;;;;;;;-142.21;100.00;66915.31;5056782;28;991;-82
2021/12/08 06:00:56;;;;;;;;;;;;;;;-142.21;100.00;66915.31;5056792;28;1646;-80
2021/12/08 06:03:22;;;;;;;;;;;;;;;-142.21;100.00;66915.31;5056490;28;1292;-83
2021/12/08 06:05:49;;;;;;;;;;;;;;;-142.21;100.00;66915.31;5056180;28;1351;-82
2021/12/08 06:08:15;;;;;;;;;;;;;;;-142.21;100.00;66915.31;5056314;28;827;-81
2021/12/08 06:10:41;;;;;;;;;;;;;;;-142.21;100.00;66915.31;5054997;28;1282;-82
2021/12/08 06:13:08;;;;;;;;;;;;;;;-142.21;100.00;66915.31;5056550;28;1893;-82
2021/12/08 06:15:33;;;;;;;;;;;;;;;-142.21;100.00;66915.31;5054801;28;1542;-81
2021/12/08 06:17:58;;;;;;;;;;;;;;;-142.21;100.00;66915.31;5056974;28;1498;-81
2021/12/08 06:20:24;;;;;;;;;;;;;;;-142.21;100.00;66915.31;5055890;28;1371;-82
2021/12/08 06:22:50;;;;;;;;;;;;;;;-142.21;100.00;66915.31;5055508;28;1478;-82
2021/12/08 06:25:16;;;;;;;;;;;;;;;-142.21;100.00;66915.31;5055241;28;1506;-82
2021/12/08 06:27:41;;;;;;;;;;;;;;;-142.21;100.00;66915.31;5057019;28;1478;-81
2021/12/08 06:30:08;;;;;;;;;;;;;;;-142.21;100.00;66915.31;5055837;28;1360;-82
2021/12/08 06:32:34;;;;;;;;;;;;;;;-142.21;100.00;66915.31;5055244;28;1960;-81
2021/12/08 06:34:59;;;;;;;;;;;;;;;-142.21;100.00;66915.31;5054140;28;1318;-81
2021/12/08 06:37:37;;;;;;;;;;;;;;;-142.21;100.00;66915.31;5055778;28;939;-82
2021/12/08 06:40:05;;;;;;;;;;;;;;;-142.21;100.00;66915.31;5054288;28;1444;-82
2021/12/08 06:42:33;;;;;;;;;;;;;;;-142.21;100.00;66915.31;5053826;28;1183;-81
2021/12/08 06:44:59;;;;;;;;;;;;;;;-142.21;100.00;66915.31;5054589;28;1278;-82
2021/12/08 06:47:26;;;;;;;;;;;;;;;-142.21;100.00;66915.31;5055846;28;928;-81
2021/12/08 06:49:53;;;;;;;;;;;;;;;-142.21;100.00;66915.31;5054400;28;1286;-82
2021/12/08 06:52:20;;;;;;;;;;;;;;;-142.21;100.00;66915.31;5055522;28;1958;-82
2021/12/08 06:55:24;;;;;;;;;;;;;;;-142.21;100.00;66915.31;5054691;28;1340;-82
2021/12/08 06:57:52;;;;;;;;;;;;;;;-142.21;100.00;66915.31;5017574;28;1224;-82
2021/12/08 07:00:35;;;;;;;;;;;;;;;-142.21;100.00;66915.31;5017207;28;1265;-82
2021/12/08 07:03:17;;;;;;;;;;;;;;;-142.21;100.00;66915.31;5046916;28;1006;-82
2021/12/08 07:06:04;;;;;;;;;;;;;;;-142.21;100.00;66915.31;5056741;28;887;-82
2021/12/08 07:08:27;;;;;;;;;;;;;;;-142.21;100.00;66915.31;5055780;28;995;-84
2021/12/08 07:10:54;;;;;;;;;;;;;;;-142.21;100.00;66915.31;5060966;28;1207;-82
2021/12/08 07:13:21;;;;;;;;;;;;;;;-142.21;100.00;66915.31;5061146;28;1906;-82
2021/12/08 07:15:46;;;;;;;;;;;;;;;-142.21;100.00;66915.31;5062850;28;911;-81
2021/12/08 07:18:15;;;;;;;;;;;;;;;-142.21;100.00;66915.31;5061980;28;834;-81
2021/12/08 07:20:45;;;;;;;;;;;;;;;-142.21;100.00;66915.31;5062597;28;888;-83
2021/12/08 07:23:14;;;;;;;;;;;;;;;-142.21;100.00;66915.31;5062904;28;1216;-83
2021/12/08 07:25:39;;;;;;;;;;;;;;;-142.21;100.00;66915.31;5060570;28;1234;-82
2021/12/08 07:28:04;;;;;;;;;;;;;;;-142.21;100.00;66915.31;5061710;28;892;-81
2021/12/08 07:30:38;;;;;;;;;;;;;;;-142.21;100.00;66915.31;5061857;28;1206;-82
2021/12/08 07:33:03;;;;;;;;;;;;;;;-142.21;100.00;66915.31;5061495;28;1910;-82
2021/12/08 07:35:35;;;;;;;;;;;;;;;-142.21;100.00;66915.31;5061555;28;1147;-82
2021/12/08 07:38:00;;;;;;;;;;;;;;;-142.21;100.00;66915.31;5060554;28;1394;-82
2021/12/08 07:40:28;;;;;;;;;;;;;;;-142.21;100.00;66915.31;5060185;28;1364;-82
2021/12/08 07:42:56;;;;;;;;;;;;;;;-142.21;100.00;66915.31;5061495;28;1163;-81
2021/12/08 07:45:25;;;;;;;;;;;;;;;-142.21;100.00;66915.31;5061169;28;1160;-82
2021/12/08 07:47:52;;;;;;;;;;;;;;;-142.21;100.00;66915.31;5060977;28;1242;-81
2021/12/08 07:50:20;;;;;;;;;;;;;;;-142.21;100.00;66915.31;5060650;28;1143;-82
2021/12/08 07:52:47;;;;;;;;;;;;;;;-142.21;100.00;66915.31;5060991;28;1898;-82
2021/12/08 07:55:16;;;;;;;;;;;;;;;-142.21;100.00;66915.31;5059601;28;1290;-82
2021/12/08 07:57:42;;;;;;;;;;;;;;;-142.21;100.00;66915.31;5060856;28;983;-81
2021/12/08 08:00:30;;;;;;;;;;;;;;;-142.21;100.00;66915.31;5061199;28;1002;-80
2021/12/08 08:02:55;;;;;;;;;;;;;;;-142.21;100.00;66915.31;5060595;28;1206;-81
2021/12/08 08:05:22;;;;;;;;;;;;;;;-142.21;100.00;66915.31;5060435;28;1177;-81
2021/12/08 08:07:48;;;;;;;;;;;;;;;-142.21;100.00;66915.31;5060873;28;912;-82
2021/12/08 08:10:15;;;;;;;;;;;;;;;-142.21;100.00;66915.31;5061494;28;1057;-82
2021/12/08 08:12:41;;;;;;;;;;;;;;;-142.21;100.00;66915.31;5062213;28;1901;-83
2021/12/08 08:15:10;;;;;;;;;;;;;;;-142.21;100.00;66915.31;5061334;28;1173;-83
2021/12/08 08:17:39;;;;;;;;;;;;;;;-142.21;100.00;66915.31;5060650;28;781;-81
2021/12/08 08:20:08;;;;;;;;;;;;;;;-142.21;100.00;66915.31;5058852;28;1321;-82
2021/12/08 08:22:34;;;;;;;;;;;;;;;-142.21;100.00;66915.31;5057714;28;1318;-82
2021/12/08 08:25:00;;;;;;;;;;;;;;;-142.21;100.00;66915.31;5057506;28;1231;-83
2021/12/08 08:27:27;;;;;;;;;;;;;;;-142.21;100.00;66915.31;5057595;28;1285;-82
2021/12/08 08:29:54;;;;;;;;;;;;;;;-142.21;100.00;66915.31;5057674;28;1326;-81
2021/12/08 08:32:24;;;;;;;;;;;;;;;-142.21;100.00;66915.31;5058578;28;1893;-84
2021/12/08 08:34:52;;;;;;;;;;;;;;;-142.21;100.00;66915.31;5057415;28;1345;-84
2021/12/08 08:37:17;;;;;;;;;;;;;;;-142.21;100.00;66915.31;5057384;28;1194;-82
2021/12/08 08:39:45;;;;;;;;;;;;;;;-142.21;100.00;66915.31;5057516;28;959;-82
2021/12/08 08:42:20;;;;;;;;;;;;;;;-142.21;100.00;66915.31;5057460;28;999;-81
2021/12/08 08:45:01;;;;;;;;;;;;;;;-142.21;100.00;66915.31;5056120;28;1262;-83
2021/12/08 08:47:30;;;;;;;;;;;;;;;-142.21;100.00;66915.31;5056062;28;1353;-81
2021/12/08 08:49:56;;;;;;;;;;;;;;;-142.21;100.00;66915.31;5056846;28;1356;-83
2021/12/08 08:52:39;;;;;;;;;;;;;;;-142.21;100.00;66915.31;5055388;28;1961;-83
2021/12/08 08:55:10;;;;;;;;;;;;;;;-142.21;100.00;66915.31;5057806;28;1268;-84
2021/12/08 08:57:37;;;;;;;;;;;;;;;-142.21;100.00;66915.31;5056572;28;1230;-83
2021/12/08 09:00:10;;;;;;;;;;;;;;;-142.21;100.00;66915.31;5056159;28;975;-82
2021/12/08 09:02:38;;;;;;;;;;;;;;;-142.21;100.00;66915.31;5056242;28;1378;-81
2021/12/08 09:05:09;;;;;;;;;;;;;;;-142.21;100.00;66915.31;5055565;28;1422;-83
2021/12/08 09:07:36;;;;;;;;;;;;;;;-142.21;100.00;66915.31;5054746;28;1333;-83
2021/12/08 09:10:05;;;;;;;;;;;;;;;-142.21;100.00;66915.31;5055870;28;778;-82
2021/12/08 09:12:38;;;;;;;;;;;;;;;-142.21;100.00;66915.31;5054089;28;1902;-82
2021/12/08 09:15:13;;;;;;;;;;;;;;;-142.21;100.00;66915.31;5054505;28;1378;-81
2021/12/08 09:17:44;;;;;;;;;;;;;;;-142.21;100.00;66915.31;5055902;28;876;-83
2021/12/08 09:20:21;;;;;;;;;;;;;;;-142.21;100.00;66915.31;5055616;28;930;-83
2021/12/08 09:22:54;;;;;;;;;;;;;;;-142.21;100.00;66915.31;5055095;28;1214;-82
2021/12/08 09:25:25;;;;;;;;;;;;;;;-142.21;100.00;66915.31;5055889;28;1260;-82
2021/12/08 09:27:53;;;;;;;;;;;;;;;-142.21;100.00;66915.31;5054831;28;1408;-83
2021/12/08 09:30:22;;;;;;;;;;;;;;;-142.21;100.00;66915.31;5054421;28;1203;-83
2021/12/08 09:32:49;;;;;;;;;;;;;;;-142.21;100.00;66915.31;5055274;28;1930;-82
2021/12/08 09:35:32;;;;;;;;;;;;;;;-142.21;100.00;66915.31;5055646;28;1193;-82
2021/12/08 09:38:04;;;;;;;;;;;;;;;-142.21;100.00;66915.31;5054339;28;1175;-82
2021/12/08 09:40:37;;;;;;;;;;;;;;;-142.21;100.00;66915.31;5054315;28;1305;-83
2021/12/08 09:43:05;;;;;;;;;;;;;;;-142.21;100.00;66915.31;5054400;28;1283;-82
2021/12/08 09:45:33;;;;;;;;;;;;;;;-142.21;100.00;66915.31;5054365;28;1233;-82
2021/12/08 09:48:03;;;;;;;;;;;;;;;-142.21;100.00;66915.31;5054003;28;1266;-83
2021/12/08 09:50:28;;;;;;;;;;;;;;;-142.21;100.00;66915.31;5054549;28;1255;-82
2021/12/08 09:52:54;;;;;;;;;;;;;;;-142.21;100.00;66915.31;5054833;28;1947;-82
2021/12/08 09:55:19;;;;;;;;;;;;;;;-142.21;100.00;66915.31;5053716;28;1234;-84
2021/12/08 09:57:45;;;;;;;;;;;;;;;-142.21;100.00;66915.31;5054450;28;1218;-82
2021/12/08 10:00:15;;;;;;;;;;;;;;;-142.21;100.00;66915.31;5055651;28;1070;-82
2021/12/08 10:02:40;;;;;;;;;;;;;;;-142.21;100.00;66915.31;5054061;28;1214;-81
2021/12/08 10:05:08;;;;;;;;;;;;;;;-142.21;100.00;66915.31;5054074;28;1314;-82
2021/12/08 10:07:33;;;;;;;;;;;;;;;-142.21;100.00;66915.31;5055346;28;1121;-84
2021/12/08 10:09:59;;;;;;;;;;;;;;;-142.21;100.00;66915.31;5055423;28;1062;-81
2021/12/08 10:12:24;;;;;;;;;;;;;;;-142.21;100.00;66915.31;5054207;28;1902;-83
2021/12/08 10:14:50;;;;;;;;;;;;;;;-142.21;100.00;66915.31;5055785;28;1181;-82
2021/12/08 10:17:16;;;;;;;;;;;;;;;-142.21;100.00;66915.31;5054060;28;1364;-83
2021/12/08 10:19:42;;;;;;;;;;;;;;;-142.21;100.00;66915.31;5053406;28;1426;-84
2021/12/08 10:22:20;;;;;;;;;;;;;;;-142.21;100.00;66915.31;5054149;28;1330;-83
2021/12/08 10:25:06;;;;;;;;;;;;;;;-142.21;100.00;66915.31;5054182;28;1233;-84
2021/12/08 10:27:33;;;;;;;;;;;;;;;-142.21;100.00;66915.31;5056327;28;1253;-85
2021/12/08 10:30:17;;;;;;;;;;;;;;;-142.21;100.00;66915.31;5056269;28;1326;-82
2021/12/08 10:32:42;;;;;;;;;;;;;;;-142.21;100.00;66915.31;5056120;28;1949;-84
2021/12/08 10:35:28;;;;;;;;;;;;;;;-142.21;100.00;66915.31;5055588;28;1309;-84
2021/12/08 10:38:00;;;;;;;;;;;;;;;-142.21;100.00;66915.31;5055905;28;1271;-82
2021/12/08 10:40:25;;;;;;;;;;;;;;;-142.21;100.00;66915.31;5056307;28;1448;-84
2021/12/08 10:42:51;;;;;;;;;;;;;;;-142.21;100.00;66915.31;5055853;28;936;-84
2021/12/08 10:45:22;;;;;;;;;;;;;;;-142.21;100.00;66915.31;5056244;28;1204;-84
2021/12/08 10:47:49;;;;;;;;;;;;;;;-142.21;100.00;66915.31;5056318;28;1309;-83
2021/12/08 10:55:52;;;;;;;;;;;;;;;-142.21;100.00;66915.31;5057708;28;691;-83
2021/12/08 10:58:25;;;;;;;;;;;;;;;-142.21;100.00;66915.31;5057671;28;1171;-84
2021/12/08 11:00:50;;;;;;;;;;;;;;;-142.21;100.00;66915.31;5057366;28;1392;-83
2021/12/08 11:03:16;;;;;;;;;;;;;;;-142.21;100.00;66915.31;5057803;28;1275;-82
2021/12/08 11:05:48;;;;;;;;;;;;;;;-142.21;100.00;66915.31;5058459;28;1412;-82
2021/12/08 11:08:13;;;;;;;;;;;;;;;-142.21;100.00;66915.31;5058161;28;1194;-84
2021/12/08 11:10:40;;;;;;;;;;;;;;;-142.21;100.00;66915.31;5059089;28;1215;-83
2021/12/08 11:13:07;;;;;;;;;;;;;;;-142.21;100.00;66915.31;5057593;28;1955;-84
2021/12/08 11:15:33;;;;;;;;;;;;;;;-142.21;100.00;66915.31;5056076;28;1306;-83
2021/12/08 11:18:12;;;;;;;;;;;;;;;-142.21;100.00;66915.31;5054665;28;1250;-82
2021/12/08 11:20:42;;;;;;;;;;;;;;;-142.21;100.00;66915.31;5055058;28;825;-83
2021/12/08 11:23:10;;;;;;;;;;;;;;;-142.21;100.00;66915.31;5053112;28;1468;-84
2021/12/08 11:25:39;;;;;;;;;;;;;;;-142.21;100.00;66915.31;5053131;28;1230;-83
2021/12/08 11:28:18;;;;;;;;;;;;;;;-142.21;100.00;66915.31;5052935;28;1334;-79
2021/12/08 11:30:43;;;;;;;;;;;;;;;-142.21;100.00;66915.31;5054146;28;1180;-84
2021/12/08 11:33:18;;;;;;;;;;;;;;;-142.21;100.00;66915.31;5052899;28;1893;-82
2021/12/08 11:35:43;;;;;;;;;;;;;;;-142.21;100.00;66915.31;5054122;28;838;-84
2021/12/08 11:38:09;;;;;;;;;;;;;;;-142.21;100.00;66915.31;5052462;28;1295;-81
2021/12/08 11:40:34;;;;;;;;;;;;;;;-142.21;100.00;66915.31;5053997;28;1007;-84
2021/12/08 11:43:00;;;;;;;;;;;;;;;-142.21;100.00;66915.31;5054195;28;1030;-82
2021/12/08 11:45:25;;;;;;;;;;;;;;;-142.21;100.00;66915.31;5053821;28;1230;-84
2021/12/08 11:47:50;;;;;;;;;;;;;;;-142.21;100.00;66915.31;5053097;28;1035;-83
2021/12/08 11:50:17;;;;;;;;;;;;;;;-142.21;100.00;66915.31;5054130;28;888;-82
2021/12/08 11:52:42;;;;;;;;;;;;;;;-142.21;100.00;66915.31;5054431;28;1894;-83
2021/12/08 11:55:10;;;;;;;;;;;;;;;-142.21;100.00;66915.31;5054690;28;1166;-84
2021/12/08 11:57:37;;;;;;;;;;;;;;;-142.21;100.00;66915.31;5056814;28;1271;-82
2021/12/08 12:00:24;;;;;;;;;;;;;;;-142.21;100.00;66915.31;5098284;23;2238;-91
2021/12/08 12:02:59;;;;;;;;;;;;;;;-142.21;100.00;66915.31;5028284;28;1006;-90
2021/12/08 12:05:26;;;;;;;;;;;;;;;-142.21;100.00;66915.31;5036694;28;1225;-89
2021/12/08 12:07:51;;;;;;;;;;;;;;;-142.21;100.00;66915.31;5035834;28;1314;-89
2021/12/08 12:10:19;;;;;;;;;;;;;;;-142.21;100.00;66915.31;5035795;28;1367;-90
2021/12/08 12:12:44;;;;;;;;;;;;;;;-142.21;100.00;66915.31;5035522;28;1969;-89
2021/12/08 12:15:12;;;;;;;;;;;;;;;-142.21;100.00;66915.31;5035913;28;1233;-89
2021/12/08 12:17:38;;;;;;;;;;;;;;;-142.21;100.00;66915.31;5037465;28;1216;-89
2021/12/08 12:20:12;;;;;;;;;;;;;;;-142.21;100.00;66915.31;5036525;28;1278;-91
2021/12/08 12:22:37;;;;;;;;;;;;;;;-142.21;100.00;66915.31;5037079;28;1345;-89
2021/12/08 12:25:21;;;;;;;;;;;;;;;-142.21;100.00;66915.31;5035965;28;1300;-90
2021/12/08 12:27:54;;;;;;;;;;;;;;;-142.21;100.00;66915.31;5035812;28;1281;-89
2021/12/08 12:30:38;;;;;;;;;;;;;;;-142.21;100.00;66915.31;5035188;28;1271;-89
2021/12/08 12:33:13;;;;;;;;;;;;;;;-142.21;100.00;66915.31;5034576;28;1946;-88
2021/12/08 12:35:46;;;;;;;;;;;;;;;-142.21;100.00;66915.31;5037512;28;1069;-89
2021/12/08 12:38:13;;;;;;;;;;;;;;;-142.21;100.00;66915.31;5035961;28;1464;-89
2021/12/08 12:40:40;;;;;;;;;;;;;;;-142.21;100.00;66915.31;5036163;28;1318;-89
2021/12/08 12:43:05;;;;;;;;;;;;;;;-142.21;100.00;66915.31;5035562;28;1336;-89
2021/12/08 12:45:35;;;;;;;;;;;;;;;-142.21;100.00;66915.31;5035891;28;1175;-89
2021/12/08 12:48:05;;;;;;;;;;;;;;;-142.21;100.00;66915.31;5038505;28;845;-89
2021/12/08 12:50:30;;;;;;;;;;;;;;;-142.21;100.00;66915.31;5037594;28;1267;-88
2021/12/08 12:52:56;;;;;;;;;;;;;;;-142.21;100.00;66915.31;5035818;28;1948;-90
2021/12/08 12:55:24;;;;;;;;;;;;;;;-142.21;100.00;66915.31;5037282;28;991;-88
2021/12/08 12:58:01;;;;;;;;;;;;;;;-142.21;100.00;66915.31;5035915;28;1235;-88
2021/12/08 13:00:28;;;;;;;;;;;;;;;-142.21;100.00;66915.31;5035357;28;1418;-89
2021/12/08 13:02:53;;;;;;;;;;;;;;;-142.21;100.00;66915.31;5035553;28;1899;-89
2021/12/08 13:05:18;;;;;;;;;;;;;;;-142.21;100.00;66915.31;5035699;28;1459;-88
2021/12/08 13:07:57;;;;;;;;;;;;;;;-142.21;100.00;66915.31;5035981;28;983;-89
2021/12/08 13:10:29;;;;;;;;;;;;;;;-142.21;100.00;66915.31;5037217;28;1212;-88
2021/12/08 13:13:08;;;;;;;;;;;;;;;-142.21;100.00;66915.31;5034998;28;1894;-92
2021/12/08 13:15:33;;;;;;;;;;;;;;;-142.21;100.00;66915.31;5035366;28;1322;-90